Malta, Montana
Current Conditions -  °F | °C
As of 2:53 PM on Sunday 21 Dec 2014 (Local Time) from KGGW Reporting Station
Overcast Overcast  
Wind Chill: 32°   Ceiling: 8000
Heat Index: 32°   Visibility: 10mi
Dew Point: 30°   Wind: 3mph
Humidity: 92%   Direction: 60°ENE
Pressure: 29.3"   Gusts: NA
Location:  48.36°N, 107.87°W
Report Text: KGGW 212153Z AUTO 06003KT 10SM OVC080 00/M01 A2930 RMK AO2 RAE09UPB30E41 SLP950 P0001 T00001011
Loading
Personal Weather Stations






























Interactive Weather Map New forecast layout! Learn more

10-Day Weather Forecast

Advertisements
Track Severe Weather on mobile